createdAt,value
2019-03-05T00:00:27.624Z,5.70
2019-03-05T00:02:56.280Z,0.90
2019-03-05T00:05:25.884Z,3.47
2019-03-05T00:07:54.628Z,4.87
2019-03-05T00:10:23.251Z,2.83
2019-03-05T00:12:51.892Z,0.50
2019-03-05T00:15:23.348Z,1.72
2019-03-05T00:17:51.959Z,2.98
2019-03-05T00:20:20.706Z,1.83
2019-03-05T00:22:49.467Z,0.80
2019-03-05T00:25:19.540Z,2.13
2019-03-05T00:27:55.597Z,5.33
2019-03-05T00:30:34.803Z,2.12
2019-03-05T00:33:06.268Z,4.92
2019-03-05T00:35:48.475Z,2.08
2019-03-05T00:38:23.087Z,3.35
2019-03-05T00:40:57.359Z,4.20
2019-03-05T00:43:33.164Z,1.63
2019-03-05T00:46:07.801Z,5.20
2019-03-05T00:48:40.952Z,3.10
2019-03-05T00:51:27.785Z,5.53
2019-03-05T00:54:00.065Z,7.75
2019-03-05T00:56:35.784Z,0.40
2019-03-05T00:59:08.068Z,6.92
2019-03-05T01:01:54.755Z,1.20
2019-03-05T01:04:29.651Z,7.00
2019-03-05T01:06:59.008Z,0.80
2019-03-05T01:09:27.899Z,5.30
2019-03-05T01:11:56.545Z,7.50
2019-03-05T01:14:26.200Z,2.60
2019-03-05T01:16:54.863Z,3.60
2019-03-05T01:19:23.494Z,1.13
2019-03-05T01:21:52.320Z,5.90
2019-03-05T01:24:21.124Z,1.80
2019-03-05T01:26:49.827Z,1.37
2019-03-05T01:29:18.465Z,0.77
2019-03-05T01:32:04.997Z,3.50
2019-03-05T01:34:55.747Z,0.60
2019-03-05T01:37:24.628Z,4.60
2019-03-05T01:40:00.831Z,3.43
2019-03-05T01:42:29.486Z,0.87
2019-03-05T01:44:58.110Z,1.35
2019-03-05T01:47:26.856Z,2.07
2019-03-05T01:49:55.563Z,3.80
2019-03-05T01:52:24.235Z,3.35
2019-03-05T01:54:52.863Z,1.53
2019-03-05T01:57:21.488Z,3.33
2019-03-05T01:59:50.127Z,2.27
2019-03-05T02:02:18.799Z,0.50
2019-03-05T02:04:47.412Z,2.30
2019-03-05T02:07:16.578Z,3.40
2019-03-05T02:09:45.197Z,2.30
2019-03-05T02:12:13.895Z,0.27
2019-03-05T02:14:44.693Z,1.02
2019-03-05T02:17:13.311Z,0.68
2019-03-05T02:19:43.331Z,0.37
2019-03-05T02:22:31.071Z,3.10
2019-03-05T02:25:01.176Z,0.30
2019-03-05T02:27:48.989Z,1.80
2019-03-05T02:30:36.237Z,2.43
2019-03-05T02:33:26.779Z,0.40
2019-03-05T02:36:16.221Z,3.00
2019-03-05T02:38:56.013Z,5.73
2019-03-05T02:41:43.239Z,1.93
2019-03-05T02:44:15.979Z,5.03
2019-03-05T02:46:56.836Z,1.07
2019-03-05T02:49:38.813Z,2.50
2019-03-05T02:52:20.925Z,0.60
2019-03-05T02:55:09.317Z,1.47
2019-03-05T02:57:37.475Z,0.95
2019-03-05T03:00:09.116Z,4.63
2019-03-05T03:02:57.045Z,3.40
2019-03-05T03:05:48.624Z,1.20
2019-03-05T03:08:17.261Z,2.13
2019-03-05T03:10:45.889Z,1.70
2019-03-05T03:13:14.516Z,0.55
2019-03-05T03:15:43.156Z,5.30
2019-03-05T03:18:11.767Z,3.20
2019-03-05T03:20:40.628Z,0.70
2019-03-05T03:23:09.256Z,0.37
2019-03-05T03:25:37.902Z,3.43
2019-03-05T03:28:06.608Z,5.10
2019-03-05T03:30:35.498Z,5.03
2019-03-05T03:33:04.188Z,0.77
2019-03-05T03:35:33.272Z,0.70
2019-03-05T03:38:01.913Z,3.03
2019-03-05T03:40:30.596Z,0.27
2019-03-05T03:42:59.235Z,0.47
2019-03-05T03:45:28.129Z,1.67
2019-03-05T03:47:56.923Z,0.30
2019-03-05T03:50:25.550Z,5.13
2019-03-05T03:52:54.214Z,0.70
2019-03-05T03:55:22.919Z,1.73
2019-03-05T03:57:51.544Z,1.42
2019-03-05T04:00:21.060Z,0.33
2019-03-05T04:02:49.785Z,0.83
2019-03-05T04:05:18.400Z,0.78
2019-03-05T04:07:47.068Z,2.33
2019-03-05T04:10:15.699Z,0.33
2019-03-05T04:12:44.312Z,2.52
2019-03-05T04:15:14.113Z,1.30
2019-03-05T04:17:42.733Z,0.73
2019-03-05T04:20:13.376Z,1.75
2019-03-05T04:22:42.042Z,1.40
2019-03-05T04:25:10.747Z,0.72
2019-03-05T04:27:39.400Z,1.50
2019-03-05T04:30:09.199Z,0.50
2019-03-05T04:32:37.815Z,0.40
2019-03-05T04:35:07.368Z,1.40
2019-03-05T04:37:36.011Z,1.10
2019-03-05T04:40:05.060Z,0.97
2019-03-05T04:42:33.679Z,1.87
2019-03-05T04:45:16.475Z,2.23
2019-03-05T04:47:45.147Z,1.45
2019-03-05T04:50:39.158Z,0.67
2019-03-05T04:53:07.810Z,1.27
2019-03-05T04:55:36.423Z,0.25
2019-03-05T04:58:05.039Z,1.47
2019-03-05T05:00:34.090Z,1.60
2019-03-05T05:03:02.709Z,0.50
2019-03-05T05:05:31.339Z,3.05
2019-03-05T05:08:00.051Z,1.23
2019-03-05T05:10:29.307Z,1.37
2019-03-05T05:12:58.066Z,1.27
2019-03-05T05:15:28.024Z,0.37
2019-03-05T05:17:56.655Z,1.10
2019-03-05T05:20:25.281Z,1.90
2019-03-05T05:22:53.903Z,0.50
2019-03-05T05:25:22.543Z,2.33
2019-03-05T05:27:51.248Z,2.10
2019-03-05T05:30:27.651Z,0.73
2019-03-05T05:32:56.683Z,1.03
2019-03-05T05:35:25.312Z,0.28
2019-03-05T05:37:53.959Z,0.30
2019-03-05T05:40:26.375Z,0.83
2019-03-05T05:42:55.047Z,1.47
2019-03-05T05:45:24.464Z,1.00
2019-03-05T05:47:53.815Z,0.53
2019-03-05T05:50:22.810Z,2.45
2019-03-05T05:52:51.631Z,1.32
2019-03-05T05:55:20.247Z,0.30
2019-03-05T05:57:49.231Z,0.30
2019-03-05T06:00:18.175Z,0.95
2019-03-05T06:02:46.774Z,1.20
2019-03-05T06:05:15.407Z,1.13
2019-03-05T06:07:44.364Z,1.10
2019-03-05T06:10:13.624Z,1.27
2019-03-05T06:12:43.046Z,2.77
2019-03-05T06:15:11.748Z,1.30
2019-03-05T06:17:40.443Z,1.57
2019-03-05T06:20:09.823Z,1.10
2019-03-05T06:22:38.603Z,1.20
2019-03-05T06:25:07.379Z,1.97
2019-03-05T06:27:36.052Z,1.77
2019-03-05T06:30:05.335Z,1.00
2019-03-05T06:32:34.043Z,1.10
2019-03-05T06:35:02.658Z,1.15
2019-03-05T06:37:33.042Z,2.87
2019-03-05T06:40:01.548Z,1.37
2019-03-05T06:42:30.183Z,2.03
2019-03-05T06:44:58.827Z,0.55
2019-03-05T06:47:27.507Z,0.80
2019-03-05T06:49:56.212Z,2.20
2019-03-05T06:52:24.875Z,1.20
2019-03-05T06:54:53.562Z,0.42
2019-03-05T06:57:22.883Z,1.75
2019-03-05T06:59:51.514Z,0.93
2019-03-05T07:02:20.143Z,0.67
2019-03-05T07:04:58.136Z,1.80
2019-03-05T07:07:28.663Z,1.52
2019-03-05T07:10:19.431Z,0.98
2019-03-05T07:12:59.904Z,1.03
2019-03-05T07:15:47.660Z,2.13
2019-03-05T07:18:23.992Z,0.40
2019-03-05T07:21:17.544Z,0.50
2019-03-05T07:24:14.425Z,1.45
2019-03-05T07:26:43.044Z,1.00
2019-03-05T07:29:11.659Z,1.85
2019-03-05T07:31:40.298Z,2.47
2019-03-05T07:34:15.343Z,2.63
2019-03-05T07:36:45.326Z,3.97
2019-03-05T07:39:18.639Z,2.95
2019-03-05T07:41:48.247Z,3.17
2019-03-05T07:44:16.999Z,3.23
2019-03-05T07:46:45.629Z,1.02
2019-03-05T07:49:14.255Z,3.03
2019-03-05T07:51:43.594Z,3.90
2019-03-05T07:54:12.227Z,0.75
2019-03-05T07:56:40.860Z,1.17
2019-03-05T07:59:09.481Z,1.17
2019-03-05T08:01:38.092Z,1.57
2019-03-05T08:04:06.720Z,2.40
2019-03-05T08:06:35.374Z,0.87
2019-03-05T08:09:28.420Z,1.93
2019-03-05T08:11:58.608Z,2.83
2019-03-05T08:14:46.378Z,2.15
2019-03-05T08:17:15.071Z,0.20
2019-03-05T08:19:43.701Z,3.07
2019-03-05T08:22:12.312Z,1.50
2019-03-05T08:24:40.927Z,3.23
2019-03-05T08:27:09.660Z,4.27
2019-03-05T08:29:38.840Z,3.22
2019-03-05T08:32:07.467Z,2.83
2019-03-05T08:34:36.079Z,0.70
2019-03-05T08:37:04.709Z,5.00
2019-03-05T08:39:33.324Z,2.27
2019-03-05T08:42:02.009Z,0.87
2019-03-05T08:44:30.663Z,1.02
2019-03-05T08:46:59.411Z,5.72
2019-03-05T08:49:28.048Z,4.23
2019-03-05T08:51:56.692Z,3.33
2019-03-05T08:54:25.595Z,1.77
2019-03-05T08:56:54.279Z,4.93
2019-03-05T08:59:23.019Z,3.27
2019-03-05T09:01:51.635Z,4.90
2019-03-05T09:04:20.355Z,2.62
2019-03-05T09:06:49.248Z,2.75
2019-03-05T09:09:18.141Z,2.27
2019-03-05T09:11:46.907Z,6.17
2019-03-05T09:14:16.228Z,2.95
2019-03-05T09:16:44.940Z,2.37
2019-03-05T09:19:13.699Z,2.13
2019-03-05T09:21:42.351Z,3.77
2019-03-05T09:24:11.056Z,0.60
2019-03-05T09:26:50.535Z,2.40
2019-03-05T09:29:10.116Z,3.10
2019-03-05T09:31:38.731Z,1.50
2019-03-05T09:34:07.345Z,3.83
2019-03-05T09:36:35.991Z,2.90
2019-03-05T09:39:06.323Z,1.50
2019-03-05T09:41:36.924Z,2.37
2019-03-05T09:44:05.527Z,0.75
2019-03-05T09:46:34.151Z,3.03
2019-03-05T09:49:02.881Z,2.30
2019-03-05T09:51:31.492Z,1.33
2019-03-05T09:54:00.111Z,2.12
2019-03-05T09:56:29.835Z,0.88
2019-03-05T09:58:58.443Z,1.80
2019-03-05T10:01:27.798Z,1.07
2019-03-05T10:03:56.451Z,3.93
2019-03-05T10:06:25.142Z,1.07
2019-03-05T10:08:53.758Z,0.57
2019-03-05T10:11:22.468Z,0.30
2019-03-05T10:13:51.259Z,1.40
2019-03-05T10:16:19.899Z,1.15
2019-03-05T10:18:48.575Z,1.20
2019-03-05T10:21:17.199Z,1.45
2019-03-05T10:23:45.844Z,0.25
2019-03-05T10:26:14.567Z,0.70
2019-03-05T10:28:43.176Z,1.77
2019-03-05T10:31:12.111Z,2.33
2019-03-05T10:33:40.797Z,6.17
2019-03-05T10:36:09.419Z,2.13
2019-03-05T10:38:38.048Z,1.63
2019-03-05T10:41:06.671Z,0.88
2019-03-05T10:43:35.503Z,0.47
2019-03-05T10:46:04.127Z,2.93
2019-03-05T10:48:32.835Z,2.17
2019-03-05T10:51:01.487Z,0.90
2019-03-05T10:53:30.175Z,3.98
2019-03-05T10:55:58.788Z,0.20
2019-03-05T10:58:33.736Z,0.70
2019-03-05T11:00:57.868Z,4.77
2019-03-05T11:03:28.331Z,3.40
2019-03-05T11:05:57.123Z,0.53
2019-03-05T11:08:26.671Z,4.93
2019-03-05T11:10:55.490Z,1.23
2019-03-05T11:13:25.103Z,3.37
2019-03-05T11:15:54.768Z,3.93
2019-03-05T11:18:29.442Z,2.02
2019-03-05T11:20:54.961Z,7.00
2019-03-05T11:23:23.638Z,2.42
2019-03-05T11:25:52.336Z,1.20
2019-03-05T11:28:21.011Z,5.77
2019-03-05T11:30:49.811Z,0.55
2019-03-05T11:33:18.444Z,3.08
2019-03-05T11:35:47.119Z,4.20
2019-03-05T11:38:15.732Z,2.57
2019-03-05T11:40:44.382Z,2.17
2019-03-05T11:43:14.045Z,1.13
2019-03-05T11:45:43.196Z,2.37
2019-03-05T11:48:11.875Z,3.50
2019-03-05T11:50:40.718Z,4.12
2019-03-05T11:53:09.330Z,6.77
2019-03-05T11:55:38.028Z,4.70
2019-03-05T11:58:06.675Z,1.62
2019-03-05T12:00:54.418Z,3.07
2019-03-05T12:03:23.051Z,4.37
2019-03-05T12:05:51.699Z,0.40
2019-03-05T12:08:20.331Z,3.03
2019-03-05T12:10:54.428Z,4.75
2019-03-05T12:13:23.076Z,2.73
2019-03-05T12:15:51.771Z,3.98
2019-03-05T12:18:20.404Z,2.95
2019-03-05T12:20:49.423Z,4.75
2019-03-05T12:23:18.036Z,1.47
2019-03-05T12:25:47.152Z,1.35
2019-03-05T12:28:15.951Z,1.67
2019-03-05T12:30:44.573Z,0.40
2019-03-05T12:33:13.209Z,0.70
2019-03-05T12:35:42.197Z,4.77
2019-03-05T12:38:10.824Z,3.83
2019-03-05T12:40:39.478Z,4.22
2019-03-05T12:43:08.226Z,8.38
2019-03-05T12:45:36.861Z,2.50
2019-03-05T12:48:05.531Z,0.20
2019-03-05T12:50:35.830Z,3.43
2019-03-05T12:53:04.759Z,3.33
2019-03-05T12:55:33.403Z,3.13
2019-03-05T12:58:02.017Z,3.13
2019-03-05T13:00:30.743Z,4.90
2019-03-05T13:02:59.376Z,3.70
2019-03-05T13:05:28.157Z,1.27
2019-03-05T13:07:57.802Z,3.65
2019-03-05T13:10:27.136Z,0.40
2019-03-05T13:12:55.866Z,5.45
2019-03-05T13:15:25.407Z,5.83
2019-03-05T13:17:54.016Z,0.40
2019-03-05T13:20:26.316Z,2.67
2019-03-05T13:22:53.013Z,5.42
2019-03-05T13:25:24.242Z,2.00
2019-03-05T13:27:52.286Z,0.82
2019-03-05T13:30:21.990Z,2.85
2019-03-05T13:32:54.258Z,5.40
2019-03-05T13:35:25.363Z,1.10
2019-03-05T13:37:52.563Z,1.13
2019-03-05T13:40:24.953Z,3.25
2019-03-05T13:42:53.555Z,3.93
2019-03-05T13:45:22.783Z,6.05
2019-03-05T13:47:59.292Z,9.17
2019-03-05T13:50:47.058Z,4.20
2019-03-05T13:53:41.047Z,3.62
2019-03-05T13:56:14.455Z,5.40
2019-03-05T13:58:52.676Z,1.83
2019-03-05T14:01:21.311Z,4.67
2019-03-05T14:03:55.564Z,4.30
2019-03-05T14:06:43.376Z,3.35
2019-03-05T14:09:21.132Z,7.65
2019-03-05T14:11:50.607Z,7.30
2019-03-05T14:14:20.116Z,0.30
2019-03-05T14:16:51.657Z,6.92
2019-03-05T14:19:20.271Z,5.80
2019-03-05T14:21:48.943Z,3.30
2019-03-05T14:24:17.522Z,5.93
2019-03-05T14:26:46.147Z,9.17
2019-03-05T14:29:14.892Z,7.05
2019-03-05T14:31:44.875Z,8.23
2019-03-05T14:34:13.522Z,6.20
2019-03-05T14:36:42.784Z,8.70
2019-03-05T14:39:22.667Z,4.23
2019-03-05T14:41:51.317Z,5.57
2019-03-05T14:44:19.945Z,1.92
2019-03-05T14:46:52.654Z,2.60
2019-03-05T14:49:22.351Z,5.57
2019-03-05T14:51:51.017Z,5.17
2019-03-05T14:54:21.640Z,2.50
2019-03-05T14:56:50.152Z,3.10
2019-03-05T14:59:19.542Z,1.32
2019-03-05T15:01:48.187Z,1.50
2019-03-05T15:04:16.883Z,2.47
2019-03-05T15:06:46.560Z,2.55
2019-03-05T15:09:15.184Z,5.03
2019-03-05T15:11:43.788Z,4.12
2019-03-05T15:14:12.474Z,2.45
2019-03-05T15:16:41.644Z,4.58
2019-03-05T15:19:20.861Z,3.87
2019-03-05T15:21:40.596Z,3.80
2019-03-05T15:24:09.291Z,2.77
2019-03-05T15:26:38.100Z,4.27
2019-03-05T15:29:06.747Z,6.20
2019-03-05T15:31:35.388Z,5.28
2019-03-05T15:34:04.056Z,2.52
2019-03-05T15:36:32.659Z,3.15
2019-03-05T15:39:01.254Z,3.55
2019-03-05T15:41:31.530Z,5.17
2019-03-05T15:44:00.119Z,3.98
2019-03-05T15:46:28.748Z,1.55
2019-03-05T15:48:57.372Z,4.45
2019-03-05T15:51:26.122Z,5.28
2019-03-05T15:53:54.716Z,4.57
2019-03-05T15:56:23.351Z,8.83
2019-03-05T15:58:51.980Z,2.80
2019-03-05T16:01:22.552Z,4.00
2019-03-05T16:03:50.920Z,7.47
2019-03-05T16:06:19.536Z,4.00
2019-03-05T16:08:48.284Z,3.95
2019-03-05T16:11:16.894Z,4.63
2019-03-05T16:13:45.507Z,0.65
2019-03-05T16:16:14.199Z,5.80
2019-03-05T16:18:42.795Z,6.33
2019-03-05T16:21:11.484Z,4.00
2019-03-05T16:23:40.128Z,4.23
2019-03-05T16:26:08.824Z,9.23
2019-03-05T16:28:39.190Z,7.53
2019-03-05T16:31:18.280Z,2.00
2019-03-05T16:34:13.142Z,4.07
2019-03-05T16:36:56.616Z,6.47
2019-03-05T16:39:48.164Z,7.22
2019-03-05T16:42:41.959Z,10.88
2019-03-05T16:45:30.526Z,4.78
2019-03-05T16:48:17.105Z,9.90
2019-03-05T16:51:23.395Z,9.88
2019-03-05T16:54:09.951Z,6.93
2019-03-05T16:56:57.790Z,9.63
2019-03-05T16:59:57.763Z,7.03
2019-03-05T17:02:35.713Z,6.60
2019-03-05T17:05:22.659Z,8.70
2019-03-05T17:08:02.576Z,6.53
2019-03-05T17:11:00.639Z,8.03
2019-03-05T17:13:30.455Z,10.87
2019-03-05T17:16:00.951Z,5.58
2019-03-05T17:18:30.143Z,7.43
2019-03-05T17:20:58.757Z,7.85
2019-03-05T17:23:27.443Z,8.28
2019-03-05T17:25:56.223Z,5.93
2019-03-05T17:28:24.920Z,5.57
2019-03-05T17:30:53.689Z,8.73
2019-03-05T17:33:22.375Z,8.60
2019-03-05T17:35:51.188Z,6.12
2019-03-05T17:38:20.475Z,7.80
2019-03-05T17:40:49.181Z,11.53
2019-03-05T17:43:17.867Z,6.93
2019-03-05T17:45:47.347Z,8.70
2019-03-05T17:48:16.059Z,6.90
2019-03-05T17:50:44.795Z,8.23
2019-03-05T17:53:13.412Z,7.97
2019-03-05T17:55:42.111Z,9.63
2019-03-05T17:58:10.899Z,7.83
2019-03-05T18:00:40.403Z,7.10
2019-03-05T18:03:09.992Z,6.43
2019-03-05T18:05:38.588Z,5.03
2019-03-05T18:08:07.524Z,4.93
2019-03-05T18:10:36.399Z,7.90
2019-03-05T18:13:05.287Z,7.63
2019-03-05T18:15:34.179Z,9.38
2019-03-05T18:18:02.927Z,6.30
2019-03-05T18:20:32.291Z,7.63
2019-03-05T18:23:00.999Z,12.58
2019-03-05T18:25:31.263Z,7.50
2019-03-05T18:28:00.131Z,4.72
2019-03-05T18:30:28.763Z,8.73
2019-03-05T18:32:57.593Z,6.65
2019-03-05T18:35:26.276Z,4.80
2019-03-05T18:37:55.050Z,7.35
2019-03-05T18:40:23.742Z,4.37
2019-03-05T18:42:52.384Z,8.13
2019-03-05T18:45:22.154Z,6.87
2019-03-05T18:47:50.868Z,5.80
2019-03-05T18:50:19.863Z,4.40
2019-03-05T18:52:48.930Z,4.83
2019-03-05T18:55:18.410Z,5.03
2019-03-05T18:57:47.243Z,9.07
2019-03-05T19:00:17.411Z,7.00
2019-03-05T19:02:46.099Z,8.00
2019-03-05T19:05:15.067Z,4.50
2019-03-05T19:07:43.740Z,5.37
2019-03-05T19:10:13.939Z,8.25
2019-03-05T19:12:42.654Z,7.58
2019-03-05T19:15:12.559Z,5.65
2019-03-05T19:17:41.184Z,5.90
2019-03-05T19:20:10.857Z,5.60
2019-03-05T19:22:40.821Z,8.83
2019-03-05T19:25:10.787Z,5.30
2019-03-05T19:27:39.412Z,7.00
2019-03-05T19:30:09.529Z,7.13
2019-03-05T19:32:38.271Z,9.87
2019-03-05T19:35:07.592Z,11.35
2019-03-05T19:37:36.199Z,6.85
2019-03-05T19:40:04.976Z,8.20
2019-03-05T19:42:33.761Z,5.90
2019-03-05T19:45:02.467Z,5.10
2019-03-05T19:47:31.191Z,9.33
2019-03-05T19:49:59.883Z,7.62
2019-03-05T19:52:28.500Z,8.30
2019-03-05T19:54:57.203Z,6.00
2019-03-05T19:57:26.309Z,6.67
2019-03-05T19:59:54.927Z,6.77
2019-03-05T20:02:23.576Z,9.93
2019-03-05T20:04:52.272Z,7.47
2019-03-05T20:07:21.059Z,5.55
2019-03-05T20:09:49.899Z,7.10
2019-03-05T20:12:18.527Z,6.33
2019-03-05T20:14:47.143Z,6.30
2019-03-05T20:17:15.779Z,7.53
2019-03-05T20:19:44.396Z,8.27
2019-03-05T20:22:14.087Z,7.63
2019-03-05T20:24:43.334Z,13.32
2019-03-05T20:27:15.999Z,9.57
2019-03-05T20:29:42.416Z,6.50
2019-03-05T20:32:11.406Z,10.45
2019-03-05T20:34:40.613Z,4.07
2019-03-05T20:37:09.223Z,3.77
2019-03-05T20:39:38.093Z,2.97
2019-03-05T20:42:06.796Z,2.43
2019-03-05T20:44:35.462Z,0.50
2019-03-05T20:47:04.151Z,1.37
2019-03-05T20:49:32.891Z,2.83
2019-03-05T20:52:01.587Z,2.97
2019-03-05T20:54:30.477Z,1.30
2019-03-05T20:56:59.811Z,3.65
2019-03-05T20:59:28.515Z,3.97
2019-03-05T21:01:57.135Z,3.10
2019-03-05T21:04:25.800Z,5.90
2019-03-05T21:06:54.951Z,4.80
2019-03-05T21:09:23.847Z,2.58
2019-03-05T21:11:53.063Z,1.00
2019-03-05T21:14:21.680Z,3.17
2019-03-05T21:16:50.315Z,4.10
2019-03-05T21:19:18.939Z,4.33
2019-03-05T21:21:48.087Z,3.47
2019-03-05T21:24:16.735Z,6.37
2019-03-05T21:26:45.345Z,3.60
2019-03-05T21:29:13.992Z,3.77
2019-03-05T21:31:42.620Z,5.00
2019-03-05T21:34:11.311Z,5.57
2019-03-05T21:36:40.002Z,3.57
2019-03-05T21:39:12.587Z,6.90
2019-03-05T21:41:41.665Z,5.05
2019-03-05T21:44:10.435Z,7.87
2019-03-05T21:46:39.143Z,6.70
2019-03-05T21:49:08.136Z,5.13
2019-03-05T21:51:36.811Z,3.60
2019-03-05T21:54:05.451Z,6.90
2019-03-05T21:56:34.159Z,8.07
2019-03-05T21:59:02.851Z,6.27
2019-03-05T22:01:31.939Z,7.90
2019-03-05T22:04:00.964Z,3.42
2019-03-05T22:06:29.669Z,5.17
2019-03-05T22:08:58.308Z,5.92
2019-03-05T22:11:26.936Z,6.03
2019-03-05T22:13:55.867Z,4.78
2019-03-05T22:16:25.459Z,7.10
2019-03-05T22:18:54.352Z,6.87
2019-03-05T22:21:22.982Z,8.27
2019-03-05T22:23:51.686Z,7.78
2019-03-05T22:26:20.569Z,6.07
2019-03-05T22:28:49.179Z,6.97
2019-03-05T22:31:18.124Z,5.55
2019-03-05T22:33:47.812Z,8.68
2019-03-05T22:36:16.499Z,7.62
2019-03-05T22:38:45.238Z,7.65
2019-03-05T22:41:13.862Z,8.60
2019-03-05T22:43:42.574Z,7.80
2019-03-05T22:46:11.233Z,7.60
2019-03-05T22:48:40.399Z,7.95
2019-03-05T22:51:09.346Z,8.20
2019-03-05T22:53:37.971Z,10.68
2019-03-05T22:56:06.703Z,9.30
2019-03-05T22:58:35.331Z,8.80
2019-03-05T23:01:17.171Z,10.38
2019-03-05T23:03:48.632Z,11.63
2019-03-05T23:06:17.399Z,11.17
2019-03-05T23:08:46.102Z,12.63
2019-03-05T23:11:14.907Z,9.83
2019-03-05T23:13:45.076Z,8.10
2019-03-05T23:16:14.635Z,9.33
2019-03-05T23:18:44.424Z,9.10
2019-03-05T23:21:13.288Z,12.07
2019-03-05T23:23:42.979Z,7.73
2019-03-05T23:26:12.220Z,11.63
2019-03-05T23:28:41.003Z,11.93
2019-03-05T23:31:09.799Z,7.13
2019-03-05T23:33:38.487Z,9.40
2019-03-05T23:36:07.111Z,8.55
2019-03-05T23:38:35.965Z,8.27
2019-03-05T23:41:04.627Z,9.40
2019-03-05T23:43:33.496Z,11.40
2019-03-05T23:46:02.107Z,6.20
2019-03-05T23:48:30.807Z,9.10
2019-03-05T23:50:59.752Z,9.35
2019-03-05T23:53:28.372Z,7.83
2019-03-05T23:55:57.011Z,10.03
2019-03-05T23:58:25.639Z,9.03
